Time;durP1;ratioP1;P1;durP2;ratioP2;P2;SDS_P1;SDS_P2;PMS_P1;PMS_P2;Temp;Humidity;BMP_temperature;BMP_pressure;BME280_temperature;BME280_humidity;BME280_pressure;Samples;Min_cycle;Max_cycle;Signal;HPM_P1;HPM_P2
2023/03/17 00:01:15;;;;;;;1.83;0.60;;;17.60;67.90;;;;;;5006387;28;20057;-74
2023/03/17 00:03:41;;;;;;;0.60;0.50;;;17.60;68.00;;;;;;5008724;28;20064;-73
2023/03/17 00:06:27;;;;;;;0.55;0.50;;;17.60;68.00;;;;;;5006151;28;20045;-74
2023/03/17 00:08:52;;;;;;;1.20;1.00;;;17.60;68.00;;;;;;5003495;28;20044;-73
2023/03/17 00:11:18;;;;;;;1.13;1.02;;;17.60;68.00;;;;;;5005263;28;20540;-74
2023/03/17 00:13:45;;;;;;;0.70;0.70;;;17.60;67.90;;;;;;5006979;28;20053;-74
2023/03/17 00:16:18;;;;;;;0.47;0.43;;;17.60;67.90;;;;;;5037999;28;20046;-74
2023/03/17 00:18:44;;;;;;;0.65;0.65;;;17.60;68.00;;;;;;5007153;28;20045;-74
2023/03/17 00:21:13;;;;;;;0.60;0.60;;;17.60;67.80;;;;;;5005152;28;20042;-73
2023/03/17 00:23:39;;;;;;;0.60;0.60;;;17.60;67.90;;;;;;5005585;28;20053;-73
2023/03/17 00:26:05;;;;;;;0.95;0.60;;;17.60;68.10;;;;;;5005320;28;20042;-73
2023/03/17 00:28:31;;;;;;;1.42;0.75;;;17.60;68.00;;;;;;5006180;28;20050;-74
2023/03/17 00:31:00;;;;;;;0.85;0.40;;;17.60;68.00;;;;;;5005828;28;20042;-74
2023/03/17 00:33:29;;;;;;;0.50;0.50;;;17.60;68.00;;;;;;5022187;28;20046;-74
2023/03/17 00:35:55;;;;;;;0.60;0.60;;;17.60;68.10;;;;;;5006088;28;20038;-74
2023/03/17 00:38:20;;;;;;;0.60;0.50;;;17.60;68.10;;;;;;5005052;28;20049;-74
2023/03/17 00:40:46;;;;;;;0.60;0.60;;;17.60;68.00;;;;;;5005572;28;20049;-73
2023/03/17 00:43:12;;;;;;;0.70;0.60;;;17.60;68.00;;;;;;5006401;28;20041;-73
2023/03/17 00:45:38;;;;;;;0.52;0.52;;;17.60;68.00;;;;;;5008060;28;20116;-73
2023/03/17 00:48:15;;;;;;;0.70;0.52;;;17.60;68.00;;;;;;5004396;28;20485;-74
2023/03/17 00:50:41;;;;;;;0.50;0.50;;;17.60;67.90;;;;;;5004892;28;20136;-74
2023/03/17 00:53:12;;;;;;;0.77;0.65;;;17.60;67.90;;;;;;5004914;28;20042;-74
2023/03/17 00:55:39;;;;;;;0.65;0.60;;;17.60;68.00;;;;;;5004588;28;20569;-74
2023/03/17 00:58:31;;;;;;;0.50;0.50;;;17.50;67.90;;;;;;5006692;28;20045;-74
2023/03/17 01:00:57;;;;;;;0.57;0.57;;;17.50;67.90;;;;;;5003127;28;20038;-75
2023/03/17 01:03:22;;;;;;;0.57;0.50;;;17.50;67.80;;;;;;5006053;28;20046;-74
2023/03/17 01:05:48;;;;;;;0.60;0.60;;;17.50;67.90;;;;;;5006204;28;20535;-74
2023/03/17 01:08:15;;;;;;;0.60;0.60;;;17.50;67.90;;;;;;5005374;28;20062;-74
2023/03/17 01:10:41;;;;;;;0.60;0.60;;;17.60;67.80;;;;;;5005606;28;20046;-74
2023/03/17 01:13:10;;;;;;;0.63;0.63;;;17.50;67.70;;;;;;5006402;28;20499;-74
2023/03/17 01:15:36;;;;;;;0.73;0.73;;;17.60;67.80;;;;;;5006108;28;20319;-74
2023/03/17 01:18:01;;;;;;;0.63;0.63;;;17.60;67.90;;;;;;5019480;28;20125;-74
2023/03/17 01:20:29;;;;;;;0.80;0.63;;;17.60;67.80;;;;;;5006173;28;20042;-73
2023/03/17 01:22:56;;;;;;;0.60;0.60;;;17.60;67.80;;;;;;5006168;28;20042;-74
2023/03/17 01:25:21;;;;;;;1.10;0.60;;;17.50;67.80;;;;;;5004230;28;20124;-74
2023/03/17 01:27:47;;;;;;;0.60;0.60;;;17.60;67.80;;;;;;5005347;28;20132;-74
2023/03/17 01:30:20;;;;;;;0.88;0.68;;;17.50;67.70;;;;;;5004008;28;20529;-73
2023/03/17 01:32:46;;;;;;;0.97;0.50;;;17.50;67.80;;;;;;5005788;28;20128;-74
2023/03/17 01:35:12;;;;;;;1.27;0.88;;;17.50;67.70;;;;;;5005146;28;20046;-74
2023/03/17 01:37:38;;;;;;;0.57;0.57;;;17.60;67.70;;;;;;5005535;28;20488;-74
2023/03/17 01:40:05;;;;;;;0.70;0.68;;;17.60;67.80;;;;;;5007047;28;20104;-73
2023/03/17 01:42:31;;;;;;;0.65;0.65;;;17.60;67.80;;;;;;5006339;28;20170;-74
2023/03/17 01:45:02;;;;;;;0.55;0.55;;;17.60;67.60;;;;;;5005895;28;20495;-74
2023/03/17 01:47:31;;;;;;;0.50;0.40;;;17.50;67.70;;;;;;5003476;28;20062;-74
2023/03/17 01:49:59;;;;;;;0.50;0.50;;;17.50;67.70;;;;;;5004107;28;20049;-74
2023/03/17 01:52:25;;;;;;;1.25;0.60;;;17.60;67.80;;;;;;5020361;28;20962;-73
2023/03/17 01:54:55;;;;;;;0.63;0.63;;;17.60;67.70;;;;;;4990127;28;20517;-74
2023/03/17 01:57:31;;;;;;;0.80;0.60;;;17.50;67.60;;;;;;5003428;28;20046;-73
2023/03/17 02:00:06;;;;;;;0.57;0.57;;;17.50;67.60;;;;;;5004508;28;20069;-73
2023/03/17 02:02:37;;;;;;;0.40;0.40;;;17.50;67.60;;;;;;5005752;28;20046;-74
2023/03/17 02:05:04;;;;;;;0.98;0.50;;;17.50;67.70;;;;;;5002993;28;20515;-74
2023/03/17 02:07:30;;;;;;;0.60;0.60;;;17.50;67.80;;;;;;5003815;28;20053;-74
2023/03/17 02:09:56;;;;;;;0.55;0.50;;;17.50;67.80;;;;;;5007961;28;20085;-73
2023/03/17 02:12:23;;;;;;;0.73;0.52;;;17.50;67.60;;;;;;4986769;28;20092;-74
2023/03/17 02:14:50;;;;;;;0.75;0.60;;;17.50;67.80;;;;;;5021303;28;20046;-74
2023/03/17 02:17:16;;;;;;;0.63;0.63;;;17.50;67.90;;;;;;5004980;28;20495;-74
2023/03/17 02:19:42;;;;;;;0.47;0.47;;;17.50;67.70;;;;;;5005159;28;20038;-74
2023/03/17 02:22:08;;;;;;;0.50;0.50;;;17.50;67.80;;;;;;5005800;28;20429;-74
2023/03/17 02:24:42;;;;;;;0.60;0.60;;;17.50;67.80;;;;;;5021623;28;20137;-74
2023/03/17 02:27:18;;;;;;;0.70;0.40;;;17.50;67.80;;;;;;4986617;28;20053;-74
2023/03/17 02:29:45;;;;;;;0.60;0.60;;;17.50;67.80;;;;;;5019631;28;20034;-73
2023/03/17 02:32:11;;;;;;;0.60;0.60;;;17.50;67.90;;;;;;5005024;28;20042;-74
2023/03/17 02:34:37;;;;;;;1.42;0.60;;;17.50;67.80;;;;;;5005354;28;20117;-74
2023/03/17 02:37:03;;;;;;;0.50;0.50;;;17.50;67.60;;;;;;5006072;28;20433;-73
2023/03/17 02:39:29;;;;;;;0.65;0.60;;;17.50;67.80;;;;;;5003942;28;20127;-73
2023/03/17 02:41:55;;;;;;;1.13;0.50;;;17.50;67.80;;;;;;5003005;28;20048;-73
2023/03/17 02:44:21;;;;;;;0.80;0.80;;;17.50;67.80;;;;;;5003386;28;20038;-73
2023/03/17 02:46:46;;;;;;;0.70;0.70;;;17.50;67.70;;;;;;5004392;28;20052;-73
2023/03/17 02:49:12;;;;;;;0.50;0.50;;;17.50;67.70;;;;;;5007331;28;20030;-74
2023/03/17 02:51:37;;;;;;;0.60;0.60;;;17.40;67.90;;;;;;5024970;28;20123;-79
2023/03/17 02:54:03;;;;;;;0.65;0.50;;;17.40;67.80;;;;;;5008869;28;20036;-80
2023/03/17 02:56:29;;;;;;;0.63;0.50;;;17.50;67.80;;;;;;5023716;28;21241;-80
2023/03/17 02:58:55;;;;;;;0.52;0.50;;;17.40;67.60;;;;;;5008833;28;20112;-80
2023/03/17 03:01:21;;;;;;;0.60;0.60;;;17.40;67.60;;;;;;5007941;28;20061;-79
2023/03/17 03:03:46;;;;;;;0.47;0.47;;;17.40;67.90;;;;;;5009789;28;20030;-80
2023/03/17 03:06:12;;;;;;;0.50;0.50;;;17.40;68.60;;;;;;5008183;28;20038;-79
2023/03/17 03:08:38;;;;;;;0.40;0.40;;;17.40;67.90;;;;;;5007205;28;20582;-79
2023/03/17 03:11:03;;;;;;;1.33;0.60;;;17.40;67.70;;;;;;5008380;28;20041;-79
2023/03/17 03:13:30;;;;;;;0.50;0.50;;;17.40;67.80;;;;;;5007732;28;20033;-79
2023/03/17 03:15:55;;;;;;;0.50;0.50;;;17.40;67.80;;;;;;5008917;28;20050;-80
2023/03/17 03:18:21;;;;;;;0.57;0.57;;;17.40;67.80;;;;;;5006257;28;20038;-80
2023/03/17 03:20:46;;;;;;;0.60;0.60;;;17.40;67.70;;;;;;5009417;28;20034;-79
2023/03/17 03:23:12;;;;;;;0.73;0.70;;;17.40;67.90;;;;;;5022238;28;20088;-79
2023/03/17 03:25:38;;;;;;;0.73;0.73;;;17.40;67.70;;;;;;5008281;28;20046;-80
2023/03/17 03:28:05;;;;;;;0.57;0.52;;;17.40;67.90;;;;;;5007494;28;20450;-79
2023/03/17 03:30:32;;;;;;;0.60;0.60;;;17.40;67.70;;;;;;5005058;28;20392;-79
2023/03/17 03:32:57;;;;;;;0.73;0.47;;;17.40;67.70;;;;;;5008405;28;20057;-79
2023/03/17 03:35:23;;;;;;;0.60;0.60;;;17.40;67.80;;;;;;5006814;28;20503;-79
2023/03/17 03:37:49;;;;;;;0.60;0.50;;;17.40;67.90;;;;;;5007370;28;20042;-79
2023/03/17 03:40:15;;;;;;;0.50;0.50;;;17.40;67.80;;;;;;5006402;28;20473;-79
2023/03/17 03:42:40;;;;;;;0.60;0.60;;;17.40;67.80;;;;;;5007457;28;20065;-79
2023/03/17 03:45:07;;;;;;;0.52;0.50;;;17.40;67.90;;;;;;5006552;28;20113;-78
2023/03/17 03:47:32;;;;;;;0.40;0.40;;;17.40;68.00;;;;;;5006866;28;20113;-79
2023/03/17 03:49:58;;;;;;;0.65;0.60;;;17.40;67.70;;;;;;5007927;28;20046;-80
2023/03/17 03:52:23;;;;;;;0.82;0.70;;;17.40;67.90;;;;;;5006758;28;20515;-80
2023/03/17 03:54:49;;;;;;;0.40;0.40;;;17.40;67.90;;;;;;5008254;28;20045;-79
2023/03/17 03:57:14;;;;;;;0.47;0.45;;;17.40;67.70;;;;;;5006060;28;20550;-79
2023/03/17 03:59:40;;;;;;;0.50;0.50;;;17.40;67.80;;;;;;5006761;28;20038;-80
2023/03/17 04:02:06;;;;;;;0.50;0.50;;;17.40;67.90;;;;;;5006490;28;20044;-79
2023/03/17 04:04:32;;;;;;;0.50;0.45;;;17.40;67.70;;;;;;5004871;28;21121;-80
2023/03/17 04:06:58;;;;;;;0.70;0.60;;;17.40;67.80;;;;;;5008496;28;20124;-79
2023/03/17 04:09:23;;;;;;;0.50;0.50;;;17.40;67.90;;;;;;5006520;28;20452;-79
2023/03/17 04:11:49;;;;;;;0.57;0.32;;;17.40;67.90;;;;;;5006544;28;20641;-80
2023/03/17 04:14:14;;;;;;;0.50;0.50;;;17.40;67.80;;;;;;5006343;28;20034;-79
2023/03/17 04:16:40;;;;;;;0.50;0.50;;;17.30;68.20;;;;;;5006812;28;20076;-79
2023/03/17 04:19:06;;;;;;;0.52;0.52;;;17.30;67.80;;;;;;5007868;28;20073;-80
2023/03/17 04:21:31;;;;;;;0.90;0.60;;;17.40;67.90;;;;;;5006463;28;20140;-80
2023/03/17 04:23:57;;;;;;;0.40;0.40;;;17.40;67.70;;;;;;5005283;28;20038;-80
2023/03/17 04:26:23;;;;;;;0.68;0.60;;;17.30;67.70;;;;;;5001143;28;20041;-80
2023/03/17 04:28:48;;;;;;;0.50;0.50;;;17.30;67.80;;;;;;5006874;28;20132;-80
2023/03/17 04:31:14;;;;;;;0.45;0.45;;;17.30;67.80;;;;;;5006409;28;20045;-79
2023/03/17 04:33:40;;;;;;;0.40;0.40;;;17.30;68.10;;;;;;5008518;28;20041;-79
2023/03/17 04:36:06;;;;;;;0.47;0.47;;;17.30;67.80;;;;;;5006953;28;20046;-80
2023/03/17 04:38:32;;;;;;;1.60;0.60;;;17.30;68.00;;;;;;5004270;28;20046;-79
2023/03/17 04:40:58;;;;;;;0.40;0.40;;;17.30;67.90;;;;;;5021935;28;20064;-79
2023/03/17 04:43:23;;;;;;;0.45;0.45;;;17.30;67.80;;;;;;5005798;28;20050;-79
2023/03/17 04:45:49;;;;;;;0.57;0.57;;;17.40;67.90;;;;;;5008110;28;20070;-79
2023/03/17 04:48:15;;;;;;;1.35;0.38;;;17.30;67.70;;;;;;5004687;28;20426;-79
2023/03/17 04:50:41;;;;;;;0.52;0.52;;;17.30;67.80;;;;;;5006597;28;20048;-79
2023/03/17 04:53:08;;;;;;;0.55;0.52;;;17.30;67.80;;;;;;5006369;28;20045;-80
2023/03/17 04:55:33;;;;;;;0.70;0.60;;;17.30;67.80;;;;;;5003292;28;20422;-80
2023/03/17 04:57:59;;;;;;;0.60;0.60;;;17.30;68.00;;;;;;5006925;28;20051;-80
2023/03/17 05:00:25;;;;;;;0.47;0.40;;;17.30;67.80;;;;;;5002551;28;20057;-79
2023/03/17 05:02:50;;;;;;;0.60;0.60;;;17.30;67.80;;;;;;5006590;28;20048;-80
2023/03/17 05:05:16;;;;;;;1.05;0.85;;;17.30;67.80;;;;;;5004195;28;20034;-79
2023/03/17 05:07:43;;;;;;;0.40;0.40;;;17.30;68.20;;;;;;5005493;28;20500;-80
2023/03/17 05:10:10;;;;;;;0.60;0.60;;;17.50;67.40;;;;;;5006529;28;20534;-80
2023/03/17 05:12:36;;;;;;;0.95;0.55;;;17.40;67.30;;;;;;5006575;28;20046;-80
2023/03/17 05:15:01;;;;;;;0.57;0.52;;;17.40;67.30;;;;;;5004039;28;20044;-80
2023/03/17 05:17:27;;;;;;;0.50;0.50;;;17.40;67.70;;;;;;5005088;28;20046;-79
2023/03/17 05:19:52;;;;;;;0.75;0.75;;;17.30;67.60;;;;;;5005254;28;20088;-80
2023/03/17 05:22:18;;;;;;;0.60;0.60;;;17.30;67.80;;;;;;5005025;28;20408;-79
2023/03/17 05:24:44;;;;;;;0.40;0.40;;;17.30;67.70;;;;;;5007519;28;20049;-80
2023/03/17 05:27:09;;;;;;;0.50;0.50;;;17.30;67.80;;;;;;4656677;28;10000757;-80
2023/03/17 05:29:35;;;;;;;0.60;0.60;;;17.30;68.20;;;;;;4999765;28;20104;-78
2023/03/17 05:32:00;;;;;;;0.88;0.88;;;17.30;68.00;;;;;;5002756;28;20048;-81
2023/03/17 05:34:26;;;;;;;0.60;0.60;;;17.30;67.80;;;;;;5000720;28;20479;-82
2023/03/17 05:36:52;;;;;;;0.50;0.50;;;17.30;67.80;;;;;;5004261;28;20046;-81
2023/03/17 05:39:17;;;;;;;0.60;0.60;;;17.30;67.70;;;;;;4999635;28;20053;-82
2023/03/17 05:41:43;;;;;;;0.68;0.63;;;17.30;67.70;;;;;;5002325;28;20162;-82
2023/03/17 05:44:09;;;;;;;0.50;0.50;;;17.30;67.70;;;;;;5002630;28;20542;-82
2023/03/17 05:46:35;;;;;;;0.70;0.70;;;17.30;67.90;;;;;;4997487;28;20132;-82
2023/03/17 05:49:01;;;;;;;0.93;0.82;;;17.30;67.80;;;;;;5003631;28;20487;-84
2023/03/17 05:51:26;;;;;;;0.40;0.40;;;17.30;68.00;;;;;;4999344;28;20041;-84
2023/03/17 05:53:52;;;;;;;1.33;0.47;;;17.30;67.70;;;;;;5000512;28;20046;-83
2023/03/17 05:56:17;;;;;;;0.68;0.68;;;17.30;67.60;;;;;;5000742;28;20037;-83
2023/03/17 05:58:43;;;;;;;0.40;0.40;;;17.30;67.70;;;;;;5002513;28;20533;-83
2023/03/17 06:01:09;;;;;;;0.47;0.47;;;17.30;68.50;;;;;;5002717;28;20061;-83
2023/03/17 06:03:37;;;;;;;0.57;0.57;;;17.30;67.80;;;;;;5001343;28;20483;-82
2023/03/17 06:06:03;;;;;;;0.50;0.50;;;17.30;67.80;;;;;;5002112;28;20038;-83
2023/03/17 06:08:29;;;;;;;0.60;0.60;;;17.30;67.70;;;;;;5002506;28;20058;-81
2023/03/17 06:10:55;;;;;;;0.57;0.50;;;17.30;67.80;;;;;;5002065;28;20050;-81
2023/03/17 06:13:21;;;;;;;0.50;0.50;;;17.30;67.60;;;;;;5001709;28;20523;-81
2023/03/17 06:15:46;;;;;;;0.60;0.60;;;17.30;67.60;;;;;;5005173;28;20281;-80
2023/03/17 06:18:12;;;;;;;0.45;0.32;;;17.30;67.60;;;;;;4984963;28;20727;-82
2023/03/17 06:20:37;;;;;;;0.52;0.50;;;17.30;67.60;;;;;;4996237;28;20132;-82
2023/03/17 06:23:03;;;;;;;0.40;0.40;;;17.30;67.60;;;;;;5004861;28;20507;-81
2023/03/17 06:25:29;;;;;;;0.50;0.50;;;17.30;68.00;;;;;;4659089;28;9999901;-80
2023/03/17 06:27:55;;;;;;;0.82;0.60;;;17.30;68.10;;;;;;5007445;28;20054;-82
2023/03/17 06:30:21;;;;;;;0.63;0.50;;;17.40;68.10;;;;;;5004786;28;20096;-81
2023/03/17 06:32:47;;;;;;;0.40;0.40;;;17.30;67.60;;;;;;5018876;28;20407;-82
2023/03/17 06:35:12;;;;;;;0.55;0.55;;;17.40;67.60;;;;;;5003365;28;20048;-81
2023/03/17 06:37:38;;;;;;;0.47;0.43;;;17.30;67.50;;;;;;5005606;28;20484;-80
2023/03/17 06:40:08;;;;;;;0.50;0.50;;;17.30;67.60;;;;;;5007362;28;20056;-80
2023/03/17 06:42:33;;;;;;;0.70;0.70;;;17.30;67.60;;;;;;5005715;28;20237;-82
2023/03/17 06:44:59;;;;;;;0.50;0.50;;;17.40;67.60;;;;;;5003435;28;20054;-80
2023/03/17 06:47:25;;;;;;;0.40;0.40;;;17.40;67.50;;;;;;5004781;28;20057;-81
2023/03/17 06:49:50;;;;;;;1.00;0.47;;;17.40;67.50;;;;;;5002121;28;20057;-80
2023/03/17 06:52:16;;;;;;;0.77;0.50;;;17.40;67.50;;;;;;5006206;28;20466;-80
2023/03/17 06:54:41;;;;;;;0.50;0.50;;;17.40;67.70;;;;;;5007195;28;20042;-81
2023/03/17 06:57:08;;;;;;;0.70;0.70;;;17.40;67.60;;;;;;5001402;28;20076;-81
2023/03/17 06:59:34;;;;;;;0.40;0.40;;;17.40;67.60;;;;;;5005118;28;20049;-81
2023/03/17 07:01:59;;;;;;;0.63;0.63;;;17.40;67.60;;;;;;5004200;28;20061;-81
2023/03/17 07:04:25;;;;;;;0.50;0.50;;;17.40;67.60;;;;;;5004197;28;20050;-79
2023/03/17 07:06:51;;;;;;;0.40;0.40;;;17.30;67.50;;;;;;5005811;28;20104;-80
2023/03/17 07:09:16;;;;;;;0.65;0.65;;;17.40;67.40;;;;;;5003677;28;20034;-79
2023/03/17 07:11:42;;;;;;;0.57;0.57;;;17.40;67.50;;;;;;5001421;28;20045;-80
2023/03/17 07:14:08;;;;;;;0.70;0.60;;;17.40;67.60;;;;;;5003868;28;20040;-82
2023/03/17 07:16:33;;;;;;;0.30;0.30;;;17.40;67.60;;;;;;5005168;28;20054;-80
2023/03/17 07:19:00;;;;;;;0.50;0.50;;;17.40;67.50;;;;;;5006086;28;20049;-81
2023/03/17 07:21:26;;;;;;;0.40;0.40;;;17.40;67.50;;;;;;5002668;28;20056;-80
2023/03/17 07:23:51;;;;;;;0.40;0.40;;;17.40;67.40;;;;;;5004708;28;20041;-80
2023/03/17 07:26:17;;;;;;;0.38;0.38;;;17.40;67.80;;;;;;5005369;28;20042;-80
2023/03/17 07:28:43;;;;;;;0.45;0.43;;;17.40;67.90;;;;;;5006318;28;20049;-81
2023/03/17 07:31:12;;;;;;;0.40;0.40;;;17.40;67.80;;;;;;5006822;28;20053;-81
2023/03/17 07:33:38;;;;;;;0.70;0.70;;;17.40;67.60;;;;;;5006636;28;20053;-81
2023/03/17 07:36:06;;;;;;;0.52;0.50;;;17.40;67.60;;;;;;5004893;28;20060;-81
2023/03/17 07:38:32;;;;;;;0.70;0.70;;;17.40;67.80;;;;;;5008405;28;20073;-81
2023/03/17 07:40:58;;;;;;;0.70;0.70;;;17.40;67.90;;;;;;5005307;28;20133;-82
2023/03/17 07:43:23;;;;;;;0.73;0.60;;;17.40;67.60;;;;;;5036434;28;20712;-81
2023/03/17 07:45:50;;;;;;;0.70;0.68;;;17.40;67.70;;;;;;5010165;28;20137;-80
2023/03/17 07:48:15;;;;;;;0.70;0.70;;;17.40;68.00;;;;;;4655741;28;9999615;-79
2023/03/17 07:50:41;;;;;;;0.82;0.55;;;17.40;68.00;;;;;;5034787;28;20057;-79
2023/03/17 07:53:06;;;;;;;0.90;0.50;;;17.40;67.90;;;;;;5003880;28;20242;-79
2023/03/17 07:55:32;;;;;;;0.95;0.60;;;17.40;68.10;;;;;;5005376;28;20046;-79
2023/03/17 07:57:58;;;;;;;0.60;0.60;;;17.40;67.90;;;;;;5004880;28;20143;-78
2023/03/17 08:00:25;;;;;;;0.63;0.63;;;17.40;67.70;;;;;;5002747;28;20203;-81
2023/03/17 08:02:51;;;;;;;0.50;0.45;;;17.40;68.30;;;;;;4999534;28;20049;-78
2023/03/17 08:05:17;;;;;;;0.50;0.50;;;17.40;68.50;;;;;;5005178;28;20050;-78
2023/03/17 08:07:42;;;;;;;1.65;0.70;;;17.40;68.10;;;;;;5007226;28;20044;-77
2023/03/17 08:10:10;;;;;;;1.50;0.47;;;17.40;68.30;;;;;;5008739;28;20046;-77
2023/03/17 08:12:35;;;;;;;0.60;0.60;;;17.40;68.10;;;;;;5009243;28;20046;-79
2023/03/17 08:15:01;;;;;;;1.00;0.70;;;17.40;68.30;;;;;;5007133;28;20058;-77
2023/03/17 08:17:27;;;;;;;0.70;0.70;;;17.30;68.20;;;;;;5007357;28;20045;-77
2023/03/17 08:19:53;;;;;;;0.57;0.57;;;17.30;68.20;;;;;;5006020;28;20091;-77
2023/03/17 08:22:19;;;;;;;0.63;0.45;;;17.40;68.10;;;;;;5039367;28;20124;-77
2023/03/17 08:24:44;;;;;;;0.47;0.43;;;17.40;68.30;;;;;;5008215;28;20141;-77
2023/03/17 08:27:10;;;;;;;0.50;0.50;;;17.40;68.10;;;;;;5006597;28;20049;-77
2023/03/17 08:29:35;;;;;;;0.88;0.60;;;17.40;68.20;;;;;;5005593;28;20049;-77
2023/03/17 08:32:02;;;;;;;1.13;0.57;;;17.30;67.90;;;;;;5007540;28;20586;-77
2023/03/17 08:34:27;;;;;;;1.15;0.70;;;17.40;68.10;;;;;;5006979;28;20073;-77
2023/03/17 08:36:53;;;;;;;0.65;0.65;;;17.30;67.90;;;;;;5008586;28;20519;-77
2023/03/17 08:39:19;;;;;;;0.80;0.50;;;17.40;68.80;;;;;;5006746;28;20107;-77
2023/03/17 08:41:45;;;;;;;0.80;0.50;;;17.30;68.00;;;;;;5007368;28;20060;-77
2023/03/17 08:44:11;;;;;;;0.50;0.50;;;17.30;68.00;;;;;;5008644;28;20553;-77
2023/03/17 08:46:37;;;;;;;0.75;0.60;;;17.30;67.80;;;;;;5010348;28;20037;-77
2023/03/17 08:49:03;;;;;;;0.60;0.55;;;17.30;67.80;;;;;;5010525;28;20129;-77
2023/03/17 08:51:33;;;;;;;0.63;0.63;;;17.30;67.70;;;;;;5042805;28;20087;-76
2023/03/17 08:53:59;;;;;;;1.25;0.60;;;17.30;67.70;;;;;;5006621;28;20036;-72
2023/03/17 08:56:25;;;;;;;0.70;0.70;;;17.30;67.70;;;;;;5005480;28;20399;-72
2023/03/17 08:58:50;;;;;;;0.50;0.50;;;17.30;67.80;;;;;;5006098;28;20034;-72
2023/03/17 09:01:16;;;;;;;0.43;0.43;;;17.30;68.00;;;;;;5021494;28;20038;-72
2023/03/17 09:03:42;;;;;;;0.68;0.60;;;17.30;68.00;;;;;;5006960;28;20034;-72
2023/03/17 09:06:10;;;;;;;1.65;0.50;;;17.30;68.10;;;;;;5005662;28;20492;-72
2023/03/17 09:08:38;;;;;;;1.67;0.82;;;17.20;68.00;;;;;;5005570;28;20045;-72
2023/03/17 09:11:09;;;;;;;0.50;0.50;;;17.30;68.10;;;;;;5005895;28;20407;-72
2023/03/17 09:13:36;;;;;;;0.50;0.50;;;17.30;68.00;;;;;;5005071;28;20529;-72
2023/03/17 09:16:02;;;;;;;0.50;0.50;;;17.30;67.90;;;;;;5003563;28;20044;-72
2023/03/17 09:18:30;;;;;;;0.50;0.50;;;17.30;68.10;;;;;;5004409;28;20033;-72
2023/03/17 09:20:56;;;;;;;0.70;0.52;;;17.30;68.00;;;;;;5005655;28;20519;-72
2023/03/17 09:23:22;;;;;;;0.50;0.50;;;17.30;67.80;;;;;;5004477;28;20503;-72
2023/03/17 09:25:47;;;;;;;0.50;0.50;;;17.40;67.70;;;;;;5004805;28;20045;-72
2023/03/17 09:28:13;;;;;;;0.52;0.50;;;17.40;67.50;;;;;;5005331;28;20042;-72
2023/03/17 09:30:42;;;;;;;0.52;0.47;;;17.50;67.60;;;;;;5007141;28;20588;-72
2023/03/17 09:33:09;;;;;;;0.40;0.40;;;17.60;67.80;;;;;;5006093;28;20056;-72
2023/03/17 09:35:35;;;;;;;0.68;0.60;;;17.60;67.40;;;;;;5020551;28;20029;-72
2023/03/17 09:38:00;;;;;;;1.00;0.60;;;17.60;67.10;;;;;;5005291;28;20442;-72
2023/03/17 09:40:34;;;;;;;0.63;0.50;;;17.70;67.30;;;;;;5006971;28;20528;-72
2023/03/17 09:43:00;;;;;;;1.65;0.57;;;17.70;67.10;;;;;;5005724;28;20038;-72
2023/03/17 09:45:33;;;;;;;0.50;0.50;;;17.70;67.00;;;;;;5005201;28;20037;-72
2023/03/17 09:48:01;;;;;;;0.50;0.50;;;17.70;66.70;;;;;;5020820;28;20054;-72
2023/03/17 09:50:31;;;;;;;0.70;0.63;;;17.80;66.70;;;;;;5004323;28;20324;-72
2023/03/17 09:52:57;;;;;;;0.60;0.60;;;17.80;66.50;;;;;;5005633;28;20038;-72
2023/03/17 09:55:28;;;;;;;0.90;0.50;;;17.80;66.50;;;;;;5003294;28;20586;-72
2023/03/17 09:57:54;;;;;;;0.63;0.63;;;17.80;66.50;;;;;;5005482;28;20061;-72
2023/03/17 10:00:25;;;;;;;0.55;0.40;;;17.80;66.60;;;;;;5008260;28;20042;-72
2023/03/17 10:02:51;;;;;;;0.45;0.40;;;17.80;66.70;;;;;;5009249;28;20466;-72
2023/03/17 10:05:18;;;;;;;0.55;0.55;;;17.80;66.50;;;;;;5024391;28;20030;-71
2023/03/17 10:07:45;;;;;;;0.57;0.57;;;17.80;66.60;;;;;;5009154;28;20897;-72
2023/03/17 10:11:00;;;;;;;0.52;0.52;;;17.80;66.50;;;;;;5024648;28;20533;-73
2023/03/17 10:13:28;;;;;;;1.52;0.40;;;17.80;66.60;;;;;;5003746;28;20077;-72
2023/03/17 10:16:06;;;;;;;0.50;0.50;;;17.80;66.50;;;;;;5011323;28;20026;-72
2023/03/17 10:18:53;;;;;;;0.70;0.70;;;17.90;66.80;;;;;;5008696;28;20058;-72
2023/03/17 10:21:23;;;;;;;0.50;0.40;;;17.90;66.50;;;;;;5008618;28;20511;-72
2023/03/17 10:23:48;;;;;;;0.68;0.55;;;17.90;66.50;;;;;;5008292;28;20030;-72
2023/03/17 10:26:25;;;;;;;0.45;0.45;;;17.90;66.40;;;;;;5006578;28;20037;-72
2023/03/17 10:28:51;;;;;;;0.40;0.40;;;17.90;66.50;;;;;;5024629;28;20431;-72
2023/03/17 10:31:18;;;;;;;0.73;0.40;;;17.90;66.40;;;;;;4991382;28;20412;-72
2023/03/17 10:33:47;;;;;;;0.50;0.50;;;17.90;66.50;;;;;;5010452;28;20111;-72
2023/03/17 10:36:14;;;;;;;0.40;0.40;;;17.90;66.40;;;;;;5008620;28;20088;-72
2023/03/17 10:38:40;;;;;;;0.50;0.47;;;17.90;66.30;;;;;;5007478;28;20407;-72
2023/03/17 10:41:08;;;;;;;0.60;0.30;;;18.00;66.40;;;;;;5009465;28;20197;-72
2023/03/17 10:43:43;;;;;;;0.35;0.35;;;18.00;66.30;;;;;;5006215;28;20062;-72
2023/03/17 10:46:20;;;;;;;0.43;0.43;;;18.00;66.30;;;;;;5024796;28;20117;-72
2023/03/17 10:48:51;;;;;;;0.50;0.50;;;18.00;66.30;;;;;;5008462;28;20216;-72
2023/03/17 10:51:20;;;;;;;0.50;0.47;;;18.00;66.40;;;;;;5009027;28;20530;-72
2023/03/17 10:53:46;;;;;;;0.28;0.28;;;18.00;66.40;;;;;;5007704;28;20455;-72
2023/03/17 10:56:24;;;;;;;0.40;0.40;;;18.00;66.50;;;;;;5022867;28;20026;-72
2023/03/17 10:58:50;;;;;;;0.65;0.60;;;18.00;66.60;;;;;;5023085;28;20034;-72
2023/03/17 11:01:38;;;;;;;0.40;0.40;;;18.00;66.70;;;;;;5006441;28;20038;-72
2023/03/17 11:04:24;;;;;;;0.40;0.40;;;18.00;66.80;;;;;;5005714;28;20045;-72
2023/03/17 11:06:51;;;;;;;0.30;0.30;;;18.00;66.70;;;;;;5020754;28;20038;-72
2023/03/17 11:09:17;;;;;;;0.50;0.50;;;18.00;66.60;;;;;;5007961;28;20511;-74
2023/03/17 11:11:44;;;;;;;0.47;0.43;;;18.00;66.60;;;;;;5037830;28;20042;-74
2023/03/17 11:14:12;;;;;;;0.50;0.50;;;18.00;66.60;;;;;;5008144;28;20042;-73
2023/03/17 11:16:41;;;;;;;0.73;0.73;;;18.00;66.70;;;;;;4656980;28;10000308;-74
2023/03/17 11:19:11;;;;;;;0.70;0.40;;;18.00;66.70;;;;;;5006173;28;20299;-72
2023/03/17 11:22:16;;;;;;;0.38;0.38;;;18.00;66.70;;;;;;5018855;28;20042;-72
2023/03/17 11:25:00;;;;;;;0.80;0.35;;;18.00;66.70;;;;;;4971106;28;20094;-73
2023/03/17 11:27:34;;;;;;;0.40;0.40;;;18.00;66.70;;;;;;4981907;28;21302;-72
2023/03/17 11:30:10;;;;;;;0.50;0.40;;;18.00;66.60;;;;;;4981524;28;20045;-72
2023/03/17 11:32:46;;;;;;;0.43;0.43;;;18.00;66.70;;;;;;4980806;28;20050;-73
2023/03/17 11:35:33;;;;;;;0.40;0.40;;;18.00;66.60;;;;;;4951740;28;20058;-73
2023/03/17 11:38:05;;;;;;;1.40;0.68;;;18.00;66.80;;;;;;4983377;28;20034;-72
2023/03/17 11:40:37;;;;;;;1.02;0.75;;;18.00;67.10;;;;;;4985558;28;20034;-73
2023/03/17 11:43:40;;;;;;;1.48;0.73;;;18.10;67.10;;;;;;4987702;28;20031;-73
2023/03/17 11:46:34;;;;;;;0.70;0.50;;;18.10;67.00;;;;;;4986165;28;20039;-73
2023/03/17 11:49:02;;;;;;;0.70;0.60;;;18.10;66.80;;;;;;4958687;28;20435;-73
2023/03/17 11:51:40;;;;;;;2.17;0.90;;;18.10;66.90;;;;;;4984842;28;20057;-73
2023/03/17 11:54:13;;;;;;;0.40;0.40;;;18.10;66.90;;;;;;4981229;28;20043;-73
2023/03/17 11:56:53;;;;;;;0.30;0.30;;;18.10;66.90;;;;;;4997363;28;20042;-73
2023/03/17 11:59:31;;;;;;;0.63;0.60;;;18.10;67.00;;;;;;4992848;28;20038;-73
2023/03/17 12:02:00;;;;;;;0.43;0.43;;;18.10;66.90;;;;;;5019360;28;20037;-73
2023/03/17 12:04:37;;;;;;;0.40;0.40;;;18.10;66.90;;;;;;5003086;28;20143;-73
2023/03/17 12:07:30;;;;;;;0.50;0.40;;;18.10;67.00;;;;;;4991015;28;20034;-73
2023/03/17 12:10:20;;;;;;;0.77;0.47;;;18.10;67.00;;;;;;4993360;28;20057;-73
2023/03/17 12:12:59;;;;;;;0.50;0.40;;;18.10;66.90;;;;;;4990405;28;20033;-73
2023/03/17 12:15:30;;;;;;;0.68;0.65;;;18.10;66.80;;;;;;4657060;28;10000173;-73
2023/03/17 12:18:03;;;;;;;0.50;0.43;;;18.10;66.70;;;;;;4683439;28;10000139;-72
2023/03/17 12:20:39;;;;;;;0.75;0.35;;;18.20;66.80;;;;;;4999474;28;20099;-72
2023/03/17 12:23:16;;;;;;;0.52;0.40;;;18.10;66.70;;;;;;4980392;28;20536;-72
2023/03/17 12:25:57;;;;;;;0.57;0.57;;;18.20;66.70;;;;;;5014370;28;20153;-73
2023/03/17 12:28:59;;;;;;;0.50;0.50;;;18.10;66.80;;;;;;5002513;28;20046;-74
2023/03/17 12:31:29;;;;;;;0.80;0.50;;;18.20;67.20;;;;;;4989101;28;20057;-73
2023/03/17 12:34:17;;;;;;;1.13;0.90;;;18.10;67.20;;;;;;4995795;28;20042;-72
2023/03/17 12:36:42;;;;;;;0.50;0.50;;;18.20;67.10;;;;;;5003477;28;20078;-73
2023/03/17 12:39:13;;;;;;;0.52;0.50;;;18.20;67.00;;;;;;5000886;28;20116;-72
2023/03/17 12:41:42;;;;;;;0.90;0.50;;;18.20;67.10;;;;;;4998788;28;20050;-73
2023/03/17 12:44:36;;;;;;;0.60;0.60;;;18.20;67.20;;;;;;4999370;28;20511;-73
2023/03/17 12:47:30;;;;;;;1.45;0.57;;;18.10;67.20;;;;;;4998232;28;20057;-73
2023/03/17 12:50:15;;;;;;;0.90;0.60;;;18.20;67.10;;;;;;4998554;28;20034;-72
2023/03/17 12:53:09;;;;;;;1.40;0.70;;;18.20;67.00;;;;;;5000549;28;20048;-72